Time;durP1;ratioP1;P1;durP2;ratioP2;P2;SDS_P1;SDS_P2;PMS_P1;PMS_P2;Temp;Humidity;BMP_temperature;BMP_pressure;BME280_temperature;BME280_humidity;BME280_pressure;Samples;Min_cycle;Max_cycle;Signal;HPM_P1;HPM_P2
2024/04/01 00:00:31;;;;;;;21.77;15.90;;;11.10;99.90;;;;;;5053199;28;20041;-70
2024/04/01 00:02:57;;;;;;;21.27;14.38;;;11.00;99.90;;;;;;5053132;28;20033;-70
2024/04/01 00:05:22;;;;;;;22.85;14.88;;;11.00;99.90;;;;;;5051942;28;20033;-70
2024/04/01 00:07:51;;;;;;;21.10;13.82;;;11.00;99.90;;;;;;5053110;28;20037;-70
2024/04/01 00:10:17;;;;;;;19.15;12.13;;;10.90;99.90;;;;;;5052020;28;20386;-70
2024/04/01 00:12:43;;;;;;;24.48;13.45;;;10.80;99.90;;;;;;5051722;28;20698;-70
2024/04/01 00:15:09;;;;;;;20.10;13.10;;;10.80;99.90;;;;;;5051823;28;20041;-70
2024/04/01 00:17:35;;;;;;;16.05;11.38;;;10.80;99.90;;;;;;5053256;28;20381;-69
2024/04/01 00:20:00;;;;;;;18.65;10.90;;;10.80;99.90;;;;;;5051576;28;20041;-70
2024/04/01 00:22:26;;;;;;;20.38;11.88;;;10.80;99.90;;;;;;5052868;28;20037;-70
2024/04/01 00:24:51;;;;;;;14.38;10.68;;;10.70;99.90;;;;;;5051645;28;20450;-70
2024/04/01 00:27:17;;;;;;;14.70;11.70;;;10.70;99.90;;;;;;5052759;28;20029;-70
2024/04/01 00:29:43;;;;;;;15.73;10.88;;;10.70;99.90;;;;;;5052554;28;20036;-70
2024/04/01 00:32:08;;;;;;;17.58;10.82;;;10.70;99.90;;;;;;5053004;28;20033;-70
2024/04/01 00:34:34;;;;;;;13.10;10.10;;;10.70;99.90;;;;;;5051392;28;20102;-70
2024/04/01 00:36:59;;;;;;;14.63;10.25;;;10.70;99.90;;;;;;5052792;28;20079;-70
2024/04/01 00:39:25;;;;;;;13.10;8.60;;;10.70;99.90;;;;;;5052488;28;20039;-70
2024/04/01 00:41:51;;;;;;;12.48;8.23;;;10.70;99.90;;;;;;5051622;28;20439;-70
2024/04/01 00:44:17;;;;;;;13.63;8.80;;;10.70;99.90;;;;;;5052087;28;20041;-70
2024/04/01 00:46:43;;;;;;;12.50;8.20;;;10.70;99.90;;;;;;5051526;28;20041;-70
2024/04/01 00:49:10;;;;;;;10.77;7.53;;;10.70;99.90;;;;;;5052676;28;20036;-70
2024/04/01 00:51:37;;;;;;;13.25;8.13;;;10.70;99.90;;;;;;5034556;28;20048;-70
2024/04/01 00:54:03;;;;;;;10.90;7.30;;;10.70;99.90;;;;;;5050714;28;20097;-70
2024/04/01 00:56:31;;;;;;;12.93;8.20;;;10.70;99.90;;;;;;5052323;28;20045;-70
2024/04/01 00:58:59;;;;;;;9.55;7.57;;;10.70;99.90;;;;;;5050947;28;20420;-70
2024/04/01 01:01:27;;;;;;;12.05;6.97;;;10.70;99.90;;;;;;5052211;28;20041;-70
2024/04/01 01:03:53;;;;;;;12.35;7.47;;;10.70;99.90;;;;;;5051751;28;20049;-70
2024/04/01 01:06:20;;;;;;;10.75;7.70;;;10.70;99.90;;;;;;5052114;28;20051;-70
2024/04/01 01:08:46;;;;;;;14.50;8.00;;;10.70;99.90;;;;;;5052018;28;20037;-70
2024/04/01 01:11:13;;;;;;;13.30;8.32;;;10.70;99.90;;;;;;5050667;28;20036;-70
2024/04/01 01:13:39;;;;;;;13.35;8.60;;;10.70;99.90;;;;;;5050355;28;20048;-70
2024/04/01 01:16:05;;;;;;;13.00;9.27;;;10.70;99.90;;;;;;5050979;28;20102;-70
2024/04/01 01:18:31;;;;;;;11.48;8.60;;;10.70;99.90;;;;;;5051016;28;20041;-70
2024/04/01 01:20:57;;;;;;;11.93;8.98;;;10.70;99.90;;;;;;5050712;28;20047;-70
2024/04/01 01:23:22;;;;;;;13.40;9.15;;;10.70;99.90;;;;;;5050095;28;20037;-70
2024/04/01 01:25:48;;;;;;;17.75;10.48;;;10.60;99.90;;;;;;5050518;28;20033;-70
2024/04/01 01:28:14;;;;;;;14.93;9.95;;;10.60;99.90;;;;;;5050628;28;20086;-70
2024/04/01 01:30:39;;;;;;;15.18;9.80;;;10.50;99.90;;;;;;5051537;28;20033;-70
2024/04/01 01:33:06;;;;;;;15.35;9.77;;;10.50;99.90;;;;;;5051466;28;20025;-70
2024/04/01 01:35:35;;;;;;;15.30;10.10;;;10.50;99.90;;;;;;5050352;28;20045;-70
2024/04/01 01:38:02;;;;;;;15.10;10.55;;;10.40;99.90;;;;;;5051530;28;20072;-70
2024/04/01 01:40:28;;;;;;;17.08;11.13;;;10.30;99.90;;;;;;5050397;28;20403;-70
2024/04/01 01:42:54;;;;;;;18.50;11.43;;;10.30;99.90;;;;;;5049946;28;20037;-70
2024/04/01 01:45:20;;;;;;;19.77;11.00;;;10.30;99.90;;;;;;5051456;28;20455;-70
2024/04/01 01:47:45;;;;;;;16.38;10.75;;;10.30;99.90;;;;;;5051768;28;20033;-70
2024/04/01 01:50:11;;;;;;;22.13;12.10;;;10.30;99.90;;;;;;5051409;28;20037;-70
2024/04/01 01:52:37;;;;;;;17.40;12.38;;;10.20;99.90;;;;;;5050936;28;20091;-70
2024/04/01 01:55:04;;;;;;;16.67;10.88;;;10.20;99.90;;;;;;5050467;28;20405;-70
2024/04/01 01:57:30;;;;;;;16.75;10.90;;;10.20;99.90;;;;;;5051537;28;20073;-70
2024/04/01 01:59:56;;;;;;;19.98;11.75;;;10.20;99.90;;;;;;5051428;28;20051;-70
2024/04/01 02:02:22;;;;;;;17.20;10.95;;;10.10;99.90;;;;;;5051526;28;20124;-70
2024/04/01 02:04:47;;;;;;;19.52;11.88;;;10.20;99.90;;;;;;5051031;28;20045;-69
2024/04/01 02:07:13;;;;;;;18.48;11.82;;;10.20;99.90;;;;;;5049925;28;20041;-69
2024/04/01 02:09:39;;;;;;;21.80;11.95;;;10.20;99.90;;;;;;5051400;28;20041;-69
2024/04/01 02:12:07;;;;;;;16.08;11.30;;;10.20;99.90;;;;;;5053990;28;20396;-69
2024/04/01 02:14:33;;;;;;;19.85;11.93;;;10.20;99.90;;;;;;5055133;28;20040;-69
2024/04/01 02:16:59;;;;;;;14.43;10.75;;;10.20;99.90;;;;;;5055417;28;20120;-69
2024/04/01 02:19:25;;;;;;;17.83;10.32;;;10.20;99.90;;;;;;5055113;28;20167;-69
2024/04/01 02:21:50;;;;;;;16.98;10.90;;;10.20;99.90;;;;;;5055149;28;20044;-69
2024/04/01 02:24:17;;;;;;;12.80;9.57;;;10.10;99.90;;;;;;5053495;28;20052;-69
2024/04/01 02:26:53;;;;;;;17.92;10.32;;;10.00;99.90;;;;;;5053670;28;20488;-69
2024/04/01 02:29:19;;;;;;;16.55;11.02;;;10.00;99.90;;;;;;5054967;28;20033;-69
2024/04/01 02:31:44;;;;;;;19.40;10.38;;;9.90;99.90;;;;;;5055242;28;20039;-69
2024/04/01 02:34:10;;;;;;;17.92;11.23;;;9.90;99.90;;;;;;5053293;28;20072;-69
2024/04/01 02:36:36;;;;;;;19.20;11.32;;;9.90;99.90;;;;;;5055081;28;20073;-69
2024/04/01 02:39:06;;;;;;;18.58;12.35;;;9.90;99.90;;;;;;5055225;28;20079;-69
2024/04/01 02:41:32;;;;;;;15.85;10.85;;;9.90;99.90;;;;;;5037125;28;20041;-69
2024/04/01 02:43:58;;;;;;;17.58;11.80;;;9.90;99.90;;;;;;5053287;28;20041;-69
2024/04/01 02:46:25;;;;;;;22.10;11.52;;;9.90;99.90;;;;;;5053494;28;20072;-69
2024/04/01 02:48:50;;;;;;;17.00;12.55;;;9.90;99.90;;;;;;5054770;28;20452;-69
2024/04/01 02:51:16;;;;;;;19.63;12.07;;;9.90;99.90;;;;;;5053378;28;20037;-70
2024/04/01 02:53:47;;;;;;;19.38;11.48;;;9.90;99.90;;;;;;5054588;28;20040;-69
2024/04/01 02:56:16;;;;;;;27.95;12.77;;;9.90;99.90;;;;;;5054810;28;20044;-69
2024/04/01 02:58:45;;;;;;;19.70;12.48;;;9.90;99.90;;;;;;5054799;28;20044;-69
2024/04/01 03:01:11;;;;;;;19.75;13.13;;;9.90;99.90;;;;;;5054453;28;20036;-69
2024/04/01 03:03:37;;;;;;;21.20;14.05;;;9.90;99.90;;;;;;5052782;28;20048;-69
2024/04/01 03:06:03;;;;;;;16.10;12.35;;;9.90;99.90;;;;;;5054638;28;20044;-69
2024/04/01 03:08:30;;;;;;;22.25;13.88;;;9.90;99.90;;;;;;5053488;28;20411;-69
2024/04/01 03:11:02;;;;;;;17.98;12.93;;;10.00;99.90;;;;;;5054232;28;20037;-69
2024/04/01 03:13:29;;;;;;;20.85;15.05;;;10.00;99.90;;;;;;5054003;28;20033;-69
2024/04/01 03:15:55;;;;;;;21.42;14.02;;;10.00;99.90;;;;;;5054068;28;20389;-69
2024/04/01 03:18:22;;;;;;;25.27;14.18;;;10.00;99.90;;;;;;5054487;28;20370;-69
2024/04/01 03:20:48;;;;;;;23.50;14.32;;;10.00;99.90;;;;;;5054070;28;20041;-69
2024/04/01 03:23:15;;;;;;;19.05;14.50;;;10.00;99.90;;;;;;5051918;28;20041;-69
2024/04/01 03:25:41;;;;;;;23.25;14.13;;;10.00;99.90;;;;;;5052717;28;20087;-69
2024/04/01 03:28:07;;;;;;;20.40;13.50;;;10.00;99.90;;;;;;5052867;28;20084;-69
2024/04/01 03:30:33;;;;;;;19.50;13.13;;;9.90;99.90;;;;;;5053670;28;20068;-69
2024/04/01 03:32:59;;;;;;;19.08;13.70;;;9.90;99.90;;;;;;5053687;28;20041;-69
2024/04/01 03:35:26;;;;;;;17.58;13.02;;;9.90;99.90;;;;;;5052754;28;20057;-69
2024/04/01 03:37:51;;;;;;;19.05;13.10;;;9.80;99.90;;;;;;5052585;28;20125;-69
2024/04/01 03:40:17;;;;;;;16.48;11.95;;;9.90;99.90;;;;;;5053616;28;20116;-70
2024/04/01 03:42:43;;;;;;;17.08;11.57;;;9.80;99.90;;;;;;5053309;28;20033;-69
2024/04/01 03:45:08;;;;;;;22.05;13.40;;;9.80;99.90;;;;;;5052263;28;20045;-70
2024/04/01 03:47:34;;;;;;;17.15;13.15;;;9.70;99.90;;;;;;5052608;28;20171;-70
2024/04/01 03:50:00;;;;;;;19.48;13.60;;;9.70;99.90;;;;;;5052423;28;20397;-70
2024/04/01 03:52:25;;;;;;;15.88;12.43;;;9.60;99.90;;;;;;5053496;28;20543;-70
2024/04/01 03:54:51;;;;;;;25.20;14.52;;;9.70;99.90;;;;;;5052142;28;20040;-70
2024/04/01 03:57:17;;;;;;;20.10;14.15;;;9.60;99.90;;;;;;5052230;28;20052;-70
2024/04/01 03:59:43;;;;;;;21.73;14.48;;;9.60;99.90;;;;;;5051897;28;20041;-71
2024/04/01 04:02:08;;;;;;;18.33;13.50;;;9.60;99.90;;;;;;5053679;28;20048;-70
2024/04/01 04:04:35;;;;;;;19.23;13.38;;;9.70;99.90;;;;;;5051533;28;20094;-70
2024/04/01 04:07:01;;;;;;;20.92;14.73;;;9.60;99.90;;;;;;5052026;28;20044;-70
2024/04/01 04:09:27;;;;;;;22.98;14.77;;;9.60;99.90;;;;;;5053130;28;20399;-70
2024/04/01 04:11:54;;;;;;;24.60;15.40;;;9.60;99.90;;;;;;5053385;28;20041;-70
2024/04/01 04:14:25;;;;;;;26.77;15.48;;;9.60;99.90;;;;;;5052680;28;20036;-70
2024/04/01 04:16:51;;;;;;;23.45;14.70;;;9.60;99.90;;;;;;5053042;28;20044;-70
2024/04/01 04:19:20;;;;;;;18.55;15.10;;;9.50;99.90;;;;;;5051533;28;20045;-70
2024/04/01 04:21:47;;;;;;;20.88;15.52;;;9.50;99.90;;;;;;5053177;28;20110;-70
2024/04/01 04:24:16;;;;;;;26.67;17.23;;;9.50;99.90;;;;;;5051313;28;20123;-70
2024/04/01 04:26:42;;;;;;;23.67;16.02;;;9.60;99.90;;;;;;5051802;28;20068;-71
2024/04/01 04:29:09;;;;;;;24.20;17.42;;;9.50;99.90;;;;;;5053152;28;20036;-70
2024/04/01 04:31:34;;;;;;;22.15;16.52;;;9.50;99.90;;;;;;5051665;28;20098;-70
2024/04/01 04:34:00;;;;;;;25.60;17.60;;;9.50;99.90;;;;;;5051537;28;20076;-70
2024/04/01 04:36:26;;;;;;;24.05;17.52;;;9.50;99.90;;;;;;5051486;28;20043;-70
2024/04/01 04:38:53;;;;;;;33.25;19.17;;;9.50;99.90;;;;;;5052850;28;20471;-70
2024/04/01 04:41:18;;;;;;;24.00;17.15;;;9.60;99.90;;;;;;5052451;28;20053;-70
2024/04/01 04:43:45;;;;;;;25.23;19.42;;;9.60;99.90;;;;;;5050922;28;20436;-70
2024/04/01 04:46:11;;;;;;;25.60;19.90;;;9.60;99.90;;;;;;5052406;28;20596;-70
2024/04/01 04:48:44;;;;;;;31.65;20.40;;;9.50;99.90;;;;;;5052647;28;20090;-70
2024/04/01 04:51:11;;;;;;;28.10;19.88;;;9.50;99.90;;;;;;5052343;28;20496;-70
2024/04/01 04:53:37;;;;;;;24.52;19.27;;;9.50;99.90;;;;;;5051944;28;20787;-70
2024/04/01 04:56:04;;;;;;;24.30;19.52;;;9.50;99.90;;;;;;5050998;28;20048;-70
2024/04/01 04:58:30;;;;;;;26.42;19.77;;;9.50;99.90;;;;;;5052282;28;20488;-70
2024/04/01 05:00:56;;;;;;;25.80;20.48;;;9.50;99.90;;;;;;5052160;28;20040;-70
2024/04/01 05:03:22;;;;;;;31.92;20.42;;;9.40;99.90;;;;;;5051678;28;20033;-70
2024/04/01 05:05:47;;;;;;;28.13;21.70;;;9.50;99.90;;;;;;5052161;28;20032;-70
2024/04/01 05:08:13;;;;;;;27.45;19.20;;;9.50;99.90;;;;;;5050903;28;20033;-70
2024/04/01 05:10:39;;;;;;;30.13;20.02;;;9.50;99.90;;;;;;5050510;28;20493;-70
2024/04/01 05:13:05;;;;;;;31.63;20.35;;;9.50;99.90;;;;;;5050141;28;20072;-70
2024/04/01 05:15:30;;;;;;;24.80;18.80;;;9.50;99.90;;;;;;5051917;28;20072;-70
2024/04/01 05:17:56;;;;;;;26.42;20.23;;;9.60;99.90;;;;;;5050473;28;20483;-70
2024/04/01 05:20:23;;;;;;;29.55;20.35;;;9.60;99.90;;;;;;5050723;28;20464;-70
2024/04/01 05:22:48;;;;;;;26.55;19.05;;;9.60;99.90;;;;;;5050228;28;20080;-70
2024/04/01 05:25:14;;;;;;;28.58;18.80;;;9.60;99.90;;;;;;5050235;28;20076;-70
2024/04/01 05:27:40;;;;;;;32.30;18.92;;;9.60;99.90;;;;;;5050810;28;20091;-71
2024/04/01 05:30:11;;;;;;;26.25;20.27;;;9.60;99.90;;;;;;5050610;28;20037;-70
2024/04/01 05:32:38;;;;;;;23.08;17.15;;;9.60;99.90;;;;;;5051319;28;20041;-70
2024/04/01 05:35:07;;;;;;;25.95;18.60;;;9.60;99.90;;;;;;5051804;28;20041;-70
2024/04/01 05:37:34;;;;;;;24.42;18.52;;;9.60;99.90;;;;;;5051820;28;20052;-70
2024/04/01 05:40:00;;;;;;;23.50;17.55;;;9.60;99.90;;;;;;5050712;28;20055;-70
2024/04/01 05:42:26;;;;;;;26.98;18.98;;;9.60;99.90;;;;;;5050209;28;20048;-70
2024/04/01 05:44:52;;;;;;;28.75;18.83;;;9.60;99.90;;;;;;5051289;28;20073;-70
2024/04/01 05:47:18;;;;;;;25.90;17.23;;;9.60;99.90;;;;;;5050157;28;20072;-70
2024/04/01 05:49:44;;;;;;;25.83;16.13;;;9.60;99.90;;;;;;5051448;28;20098;-70
2024/04/01 05:52:09;;;;;;;20.35;16.95;;;9.60;99.90;;;;;;5050253;28;20578;-70
2024/04/01 05:54:35;;;;;;;25.70;18.52;;;9.50;99.90;;;;;;5051301;28;20068;-70
2024/04/01 05:57:01;;;;;;;22.88;16.58;;;9.60;99.90;;;;;;5050236;28;20070;-70
2024/04/01 05:59:28;;;;;;;25.35;17.52;;;9.60;99.90;;;;;;5050168;28;20048;-70
2024/04/01 06:01:54;;;;;;;23.88;17.65;;;9.60;99.90;;;;;;5050250;28;20037;-70
2024/04/01 06:04:21;;;;;;;23.50;17.27;;;9.60;99.90;;;;;;5049675;28;20083;-69
2024/04/01 06:06:47;;;;;;;23.45;17.65;;;9.60;99.90;;;;;;5051264;28;20048;-70
2024/04/01 06:09:13;;;;;;;24.63;17.63;;;9.60;99.90;;;;;;5050039;28;20124;-69
2024/04/01 06:11:39;;;;;;;30.42;20.00;;;9.60;99.90;;;;;;5051613;28;20033;-70
2024/04/01 06:14:05;;;;;;;24.42;18.77;;;9.60;99.90;;;;;;5051081;28;20087;-70
2024/04/01 06:16:31;;;;;;;28.48;19.88;;;9.50;99.90;;;;;;5051294;28;20049;-70
2024/04/01 06:18:57;;;;;;;32.65;21.33;;;9.50;99.90;;;;;;5050041;28;20072;-70
2024/04/01 06:21:22;;;;;;;29.15;20.90;;;9.60;99.90;;;;;;5050895;28;20037;-70
2024/04/01 06:23:48;;;;;;;30.30;21.35;;;9.60;99.90;;;;;;5050955;28;20124;-70
2024/04/01 06:26:14;;;;;;;32.85;21.38;;;9.60;99.90;;;;;;5051258;28;20040;-70
2024/04/01 06:28:40;;;;;;;28.05;21.27;;;9.60;99.90;;;;;;5051283;28;20397;-70
2024/04/01 06:31:05;;;;;;;27.50;20.52;;;9.60;99.90;;;;;;5050987;28;20076;-70
2024/04/01 06:33:33;;;;;;;26.33;20.52;;;9.70;99.90;;;;;;5050787;28;20446;-70
2024/04/01 06:35:59;;;;;;;28.60;21.67;;;9.70;99.90;;;;;;5050977;28;20515;-70
2024/04/01 06:38:25;;;;;;;28.80;20.88;;;9.70;99.90;;;;;;5049954;28;20049;-70
2024/04/01 06:40:50;;;;;;;27.98;20.85;;;9.80;99.90;;;;;;5049734;28;20048;-70
2024/04/01 06:43:16;;;;;;;27.92;20.92;;;9.70;99.90;;;;;;5049430;28;20052;-70
2024/04/01 06:45:54;;;;;;;24.90;19.42;;;9.80;99.90;;;;;;5049453;28;20052;-70
2024/04/01 06:48:20;;;;;;;29.08;21.48;;;9.80;99.90;;;;;;5051046;28;20075;-70
2024/04/01 06:50:46;;;;;;;28.88;21.40;;;9.90;99.90;;;;;;5049809;28;20118;-70
2024/04/01 06:53:11;;;;;;;29.77;21.50;;;9.90;99.90;;;;;;5050698;28;20036;-70
2024/04/01 06:55:37;;;;;;;26.10;20.20;;;9.90;99.90;;;;;;5051048;28;20041;-70
2024/04/01 06:58:03;;;;;;;32.78;22.35;;;9.90;99.90;;;;;;5053196;28;20044;-70
2024/04/01 07:00:29;;;;;;;37.88;24.13;;;10.00;99.90;;;;;;5054398;28;20041;-70
2024/04/01 07:02:55;;;;;;;31.77;22.83;;;10.00;99.90;;;;;;5054083;28;20045;-70
2024/04/01 07:05:20;;;;;;;30.02;22.85;;;10.10;99.90;;;;;;5054608;28;20091;-70
2024/04/01 07:07:46;;;;;;;31.73;23.75;;;10.10;99.90;;;;;;5053348;28;20670;-70
2024/04/01 07:10:12;;;;;;;31.65;22.95;;;10.10;99.90;;;;;;5054339;28;20052;-70
2024/04/01 07:12:37;;;;;;;29.83;22.85;;;10.20;99.90;;;;;;5052698;28;20033;-70
2024/04/01 07:15:04;;;;;;;26.02;21.88;;;10.20;99.90;;;;;;5054279;28;20044;-70
2024/04/01 07:17:29;;;;;;;28.50;20.67;;;10.30;99.90;;;;;;5052903;28;20037;-70
2024/04/01 07:19:55;;;;;;;34.97;24.10;;;10.40;99.90;;;;;;5053898;28;20037;-70
2024/04/01 07:22:21;;;;;;;28.42;22.33;;;10.40;99.90;;;;;;5054337;28;20524;-70
2024/04/01 07:24:46;;;;;;;32.03;23.00;;;10.40;99.90;;;;;;5052312;28;20044;-70
2024/04/01 07:27:12;;;;;;;29.98;23.70;;;10.50;99.90;;;;;;5052837;28;20069;-71
2024/04/01 07:29:38;;;;;;;32.80;25.48;;;10.50;99.90;;;;;;5052557;28;20044;-70
2024/04/01 07:32:04;;;;;;;36.70;23.98;;;10.60;99.90;;;;;;5053599;28;20404;-70
2024/04/01 07:34:29;;;;;;;29.23;22.80;;;10.60;99.90;;;;;;5052802;28;20045;-70
2024/04/01 07:36:55;;;;;;;30.42;24.30;;;10.60;99.90;;;;;;5052018;28;20045;-69
2024/04/01 07:39:21;;;;;;;28.95;23.30;;;10.60;99.90;;;;;;5052417;28;20048;-69
2024/04/01 07:41:46;;;;;;;29.92;22.10;;;10.60;99.90;;;;;;5053959;28;20467;-69
2024/04/01 07:44:12;;;;;;;31.38;23.25;;;10.60;99.90;;;;;;5053332;28;20511;-70
2024/04/01 07:46:37;;;;;;;29.10;23.45;;;10.70;99.90;;;;;;5053397;28;20523;-70
2024/04/01 07:49:03;;;;;;;33.42;23.60;;;10.70;99.90;;;;;;5052457;28;20048;-70
2024/04/01 07:51:29;;;;;;;34.33;23.25;;;10.70;99.90;;;;;;5053485;28;20037;-70
2024/04/01 07:53:56;;;;;;;31.60;22.90;;;10.70;99.90;;;;;;5053348;28;20052;-70
2024/04/01 07:56:23;;;;;;;30.25;22.85;;;10.80;99.90;;;;;;5053281;28;20047;-70
2024/04/01 07:58:49;;;;;;;29.58;22.08;;;10.80;99.90;;;;;;5051957;28;20041;-70
2024/04/01 08:01:14;;;;;;;30.40;22.90;;;10.80;99.90;;;;;;5052677;28;20033;-70
2024/04/01 08:03:40;;;;;;;30.40;22.42;;;10.80;99.90;;;;;;5048106;28;20052;-71
2024/04/01 08:06:06;;;;;;;31.35;23.25;;;10.80;99.90;;;;;;5054863;28;20045;-70
2024/04/01 08:08:31;;;;;;;30.58;21.65;;;10.90;99.90;;;;;;5057137;28;20433;-70
2024/04/01 08:10:57;;;;;;;27.55;20.00;;;10.90;99.90;;;;;;5052145;28;20033;-70
2024/04/01 08:13:23;;;;;;;31.45;24.25;;;11.00;99.90;;;;;;5054191;28;20110;-70
2024/04/01 08:16:03;;;;;;;30.08;22.83;;;11.00;99.90;;;;;;5039412;28;20054;-70
2024/04/01 08:18:28;;;;;;;30.98;22.50;;;11.00;99.90;;;;;;5033426;28;20069;-70
2024/04/01 08:20:56;;;;;;;30.35;23.30;;;11.00;99.90;;;;;;5050342;28;20456;-70
2024/04/01 08:23:22;;;;;;;31.77;23.08;;;11.00;99.90;;;;;;5051162;28;20044;-71
2024/04/01 08:25:48;;;;;;;32.10;23.95;;;11.00;99.90;;;;;;5051547;28;20041;-71
2024/04/01 08:28:13;;;;;;;31.67;24.15;;;11.10;99.90;;;;;;5052969;28;20082;-70
2024/04/01 08:30:39;;;;;;;28.65;22.35;;;11.10;99.90;;;;;;5052639;28;20668;-70
2024/04/01 08:33:05;;;;;;;31.23;21.80;;;11.10;99.90;;;;;;5052680;28;20048;-70
2024/04/01 08:35:31;;;;;;;27.92;23.33;;;11.10;99.90;;;;;;5051504;28;20041;-71
2024/04/01 08:37:56;;;;;;;25.38;21.23;;;11.10;99.90;;;;;;5052904;28;20040;-70
2024/04/01 08:40:23;;;;;;;28.38;21.88;;;11.10;99.90;;;;;;5051178;28;20152;-70
2024/04/01 08:42:54;;;;;;;27.80;22.10;;;11.10;99.90;;;;;;5052226;28;20053;-70
2024/04/01 08:45:21;;;;;;;27.63;21.92;;;11.10;99.90;;;;;;5052313;28;20650;-70
2024/04/01 08:47:50;;;;;;;31.90;22.83;;;11.10;99.90;;;;;;5052845;28;20124;-70
2024/04/01 08:50:21;;;;;;;27.70;21.17;;;11.10;99.90;;;;;;5052525;28;20037;-70
2024/04/01 08:52:57;;;;;;;24.45;19.92;;;11.20;99.90;;;;;;5050858;28;20052;-70
2024/04/01 08:55:24;;;;;;;27.55;19.67;;;11.20;99.90;;;;;;5052591;28;20159;-70
2024/04/01 08:57:50;;;;;;;23.90;19.48;;;11.20;99.90;;;;;;5052366;28;21041;-70
2024/04/01 09:00:18;;;;;;;25.77;19.65;;;11.20;99.90;;;;;;5052397;28;20051;-70
2024/04/01 09:02:44;;;;;;;27.30;20.02;;;11.20;99.90;;;;;;5050774;28;20049;-70
2024/04/01 09:05:11;;;;;;;23.90;19.67;;;11.20;99.90;;;;;;5052219;28;20090;-70
2024/04/01 09:07:36;;;;;;;30.08;21.15;;;11.20;99.90;;;;;;5052232;28;20455;-70
2024/04/01 09:10:03;;;;;;;29.30;22.50;;;11.20;99.90;;;;;;5051983;28;20071;-70
2024/04/01 09:12:29;;;;;;;27.63;21.00;;;11.10;99.90;;;;;;5051894;28;20065;-70
2024/04/01 09:14:55;;;;;;;29.90;22.05;;;11.10;99.90;;;;;;5052292;28;20083;-70
2024/04/01 09:17:27;;;;;;;35.05;24.60;;;11.00;99.90;;;;;;5052131;28;20102;-70
2024/04/01 09:19:59;;;;;;;33.63;23.88;;;11.00;99.90;;;;;;5050149;28;20083;-70
2024/04/01 09:22:25;;;;;;;33.55;26.05;;;11.00;99.90;;;;;;5050580;28;20044;-70
2024/04/01 09:24:51;;;;;;;39.90;27.40;;;11.00;99.90;;;;;;5050336;28;20037;-70
2024/04/01 09:27:16;;;;;;;41.88;26.35;;;11.00;99.90;;;;;;5044941;28;20106;-70
2024/04/01 09:29:42;;;;;;;36.47;25.27;;;11.00;99.90;;;;;;5051145;28;20033;-70
2024/04/01 09:32:08;;;;;;;38.55;26.15;;;11.00;99.90;;;;;;5050677;28;20040;-70
2024/04/01 09:34:34;;;;;;;34.28;25.42;;;11.00;99.90;;;;;;5048329;28;20033;-70
2024/04/01 09:37:00;;;;;;;34.35;26.05;;;11.00;99.90;;;;;;5051401;28;20070;-70
2024/04/01 09:39:26;;;;;;;37.20;26.15;;;11.10;99.90;;;;;;5051218;28;20037;-70
2024/04/01 09:41:52;;;;;;;35.53;25.35;;;11.10;99.90;;;;;;5050184;28;20033;-71
2024/04/01 09:44:18;;;;;;;31.45;25.08;;;11.10;99.90;;;;;;5049245;28;20052;-70
2024/04/01 09:46:44;;;;;;;32.70;24.25;;;11.10;99.90;;;;;;5047903;28;20037;-70
2024/04/01 09:49:11;;;;;;;32.10;25.48;;;11.10;99.90;;;;;;5050887;28;20043;-70
2024/04/01 09:51:37;;;;;;;33.78;27.08;;;11.20;99.90;;;;;;5049972;28;20048;-70
2024/04/01 09:54:03;;;;;;;31.88;23.55;;;11.20;99.90;;;;;;5051084;28;20037;-70
2024/04/01 09:56:50;;;;;;;31.02;23.13;;;11.20;99.90;;;;;;5049535;28;20678;-70
2024/04/01 09:59:19;;;;;;;25.35;21.05;;;11.20;99.90;;;;;;5050142;28;20045;-70
2024/04/01 10:02:25;;;;;;;33.08;22.88;;;11.20;99.90;;;;;;5049935;28;20033;-70
2024/04/01 10:05:09;;;;;;;25.67;21.13;;;11.20;99.90;;;;;;5048997;28;20653;-70
2024/04/01 10:07:59;;;;;;;26.33;20.80;;;11.20;99.90;;;;;;5050972;28;20044;-70
2024/04/01 10:10:33;;;;;;;29.88;19.50;;;11.30;99.90;;;;;;5050799;28;20041;-70
2024/04/01 10:13:20;;;;;;;24.60;20.30;;;11.30;99.90;;;;;;5050908;28;20394;-70
2024/04/01 10:16:22;;;;;;;25.27;20.30;;;11.30;99.90;;;;;;5050060;28;20055;-70
2024/04/01 10:19:03;;;;;;;25.63;22.55;;;11.40;99.90;;;;;;5049786;28;20040;-70
2024/04/01 10:21:57;;;;;;;26.98;21.95;;;11.40;99.90;;;;;;5049464;28;20053;-70
2024/04/01 10:24:35;;;;;;;24.00;20.90;;;11.40;99.90;;;;;;5050564;28;20171;-70
2024/04/01 10:27:03;;;;;;;25.42;20.45;;;11.40;99.90;;;;;;5049876;28;20045;-71
2024/04/01 10:29:49;;;;;;;24.85;21.67;;;11.40;99.90;;;;;;5050869;28;20037;-70
2024/04/01 10:32:18;;;;;;;28.80;22.60;;;11.50;99.90;;;;;;5052175;28;20044;-70
2024/04/01 10:34:58;;;;;;;29.08;23.55;;;11.50;99.90;;;;;;5054521;28;20037;-70
2024/04/01 10:37:40;;;;;;;28.13;22.90;;;11.50;99.90;;;;;;5053644;28;20045;-70
2024/04/01 10:40:48;;;;;;;36.38;25.55;;;11.50;99.90;;;;;;5054827;28;20048;-70
2024/04/01 10:43:35;;;;;;;30.10;24.35;;;11.60;99.90;;;;;;5054448;28;20048;-70
2024/04/01 10:46:25;;;;;;;29.88;24.98;;;11.70;99.90;;;;;;5053440;28;20404;-70
2024/04/01 10:49:20;;;;;;;30.38;25.27;;;11.70;99.90;;;;;;5054705;28;20558;-70
2024/04/01 10:52:13;;;;;;;33.30;24.48;;;11.80;99.90;;;;;;5053222;28;20033;-70
2024/04/01 10:55:02;;;;;;;30.10;23.50;;;11.80;99.90;;;;;;5054256;28;20175;-70
2024/04/01 10:58:16;;;;;;;31.98;24.48;;;11.80;99.90;;;;;;5023996;28;20053;-71
2024/04/01 11:01:11;;;;;;;31.63;25.63;;;11.80;99.90;;;;;;5016892;28;20769;-71
2024/04/01 11:04:10;;;;;;;32.13;26.88;;;11.90;99.90;;;;;;5052550;28;20114;-70
2024/04/01 11:07:06;;;;;;;35.22;27.55;;;12.00;99.90;;;;;;5054091;28;20037;-71
2024/04/01 11:09:38;;;;;;;32.28;27.15;;;12.10;99.90;;;;;;5052754;28;20048;-70
2024/04/01 11:12:52;;;;;;;35.80;29.42;;;12.10;99.90;;;;;;5054392;28;20033;-70
2024/04/01 11:15:19;;;;;;;36.53;27.67;;;12.20;99.90;;;;;;5011980;28;20049;-70
2024/04/01 11:17:46;;;;;;;44.15;31.60;;;12.40;99.90;;;;;;4995610;28;20037;-70
2024/04/01 11:20:41;;;;;;;39.90;29.40;;;12.40;99.90;;;;;;5034952;28;20131;-70
2024/04/01 11:23:09;;;;;;;38.65;27.42;;;12.60;99.90;;;;;;5052637;28;20471;-70
2024/04/01 11:25:57;;;;;;;37.53;29.92;;;12.50;99.90;;;;;;5053580;28;20044;-70
2024/04/01 11:28:55;;;;;;;39.65;29.25;;;12.50;99.90;;;;;;5054065;28;20044;-70
2024/04/01 11:31:24;;;;;;;36.42;28.05;;;12.40;99.90;;;;;;5053757;28;20069;-70
2024/04/01 11:33:55;;;;;;;33.88;28.30;;;12.40;99.90;;;;;;5051351;28;20037;-70
2024/04/01 11:36:29;;;;;;;33.80;27.00;;;12.30;99.90;;;;;;5053163;28;20389;-70
2024/04/01 11:39:10;;;;;;;33.72;26.73;;;12.30;99.90;;;;;;5051689;28;20519;-70
2024/04/01 11:41:40;;;;;;;31.17;24.60;;;12.30;99.90;;;;;;5051693;28;20121;-70
2024/04/01 11:44:07;;;;;;;31.75;25.58;;;12.20;99.90;;;;;;5052691;28;20045;-70
2024/04/01 11:46:33;;;;;;;36.08;26.58;;;12.20;99.90;;;;;;5053300;28;20629;-70
2024/04/01 11:48:58;;;;;;;37.00;28.77;;;12.30;99.90;;;;;;5053900;28;20107;-70
2024/04/01 11:51:31;;;;;;;33.42;26.73;;;12.40;99.90;;;;;;5053323;28;20451;-70
2024/04/01 11:53:57;;;;;;;33.75;26.27;;;12.40;99.90;;;;;;5052388;28;20037;-70
2024/04/01 11:56:39;;;;;;;35.75;27.73;;;12.40;99.90;;;;;;5052907;28;20025;-70
2024/04/01 11:59:11;;;;;;;34.08;27.58;;;12.40;99.90;;;;;;5052892;28;20092;-70
2024/04/01 12:01:38;;;;;;;37.33;28.05;;;12.50;99.90;;;;;;5053071;28;20094;-69
2024/04/01 12:04:05;;;;;;;33.95;27.42;;;12.50;99.90;;;;;;5051968;28;20570;-69
2024/04/01 12:06:32;;;;;;;29.52;24.50;;;12.60;99.90;;;;;;5052651;28;20091;-69
2024/04/01 12:09:08;;;;;;;31.42;23.65;;;12.50;99.90;;;;;;5051822;28;20045;-69
2024/04/01 12:11:33;;;;;;;27.00;22.17;;;12.60;99.90;;;;;;5053004;28;20037;-69
2024/04/01 12:14:01;;;;;;;28.38;21.83;;;12.60;99.90;;;;;;5052642;28;20041;-69
2024/04/01 12:16:32;;;;;;;26.27;21.63;;;12.60;99.90;;;;;;5052889;28;20063;-69
2024/04/01 12:19:00;;;;;;;27.55;21.95;;;12.60;99.90;;;;;;5053137;28;20116;-69
2024/04/01 12:21:29;;;;;;;23.65;20.65;;;12.60;99.90;;;;;;5051223;28;20040;-69
2024/04/01 12:23:55;;;;;;;26.40;21.00;;;12.60;99.90;;;;;;5050816;28;20036;-69
2024/04/01 12:26:21;;;;;;;21.48;18.42;;;12.50;99.90;;;;;;5052958;28;20504;-69
2024/04/01 12:28:46;;;;;;;26.58;20.13;;;12.60;99.90;;;;;;5052920;28;20083;-69
2024/04/01 12:31:18;;;;;;;25.63;20.42;;;12.60;99.90;;;;;;5052550;28;20055;-69
2024/04/01 12:33:47;;;;;;;22.75;18.58;;;12.60;99.90;;;;;;5050984;28;20093;-69
2024/04/01 12:36:13;;;;;;;23.00;18.60;;;12.50;99.90;;;;;;5052630;28;20115;-69
2024/04/01 12:38:43;;;;;;;25.27;18.13;;;12.50;99.90;;;;;;5051229;28;20385;-69